Time;durP1;ratioP1;P1;durP2;ratioP2;P2;SDS_P1;SDS_P2;PMS_P1;PMS_P2;Temp;Humidity;BMP_temperature;BMP_pressure;BME280_temperature;BME280_humidity;BME280_pressure;Samples;Min_cycle;Max_cycle;Signal;HPM_P1;HPM_P2
2021/12/26 00:00:22;;;;;;;63.53;52.20;;;15.50;58.50;;;;;;4943521;28;90373;-69
2021/12/26 00:02:47;;;;;;;64.97;53.60;;;15.60;58.60;;;;;;4944095;28;90946;-69
2021/12/26 00:05:14;;;;;;;62.58;51.83;;;15.50;58.40;;;;;;4943122;28;89956;-69
2021/12/26 00:07:39;;;;;;;64.60;52.95;;;15.50;58.50;;;;;;4945276;28;90008;-68
2021/12/26 00:10:08;;;;;;;66.22;53.25;;;15.50;58.50;;;;;;4942949;28;90175;-68
2021/12/26 00:12:34;;;;;;;64.57;53.08;;;15.50;58.50;;;;;;4954071;28;90097;-68
2021/12/26 00:15:00;;;;;;;64.35;52.60;;;15.50;58.60;;;;;;4940231;28;91441;-69
2021/12/26 00:17:25;;;;;;;65.63;53.55;;;15.50;58.90;;;;;;4948964;28;94155;-69
2021/12/26 00:19:51;;;;;;;70.25;55.88;;;15.50;58.80;;;;;;4941977;28;91913;-69
2021/12/26 00:22:17;;;;;;;65.25;52.58;;;15.60;58.60;;;;;;4966599;28;89570;-69
2021/12/26 00:24:43;;;;;;;66.38;53.45;;;15.70;58.50;;;;;;4946816;28;89961;-68
2021/12/26 00:27:08;;;;;;;69.30;55.15;;;15.70;58.40;;;;;;4954336;28;89742;-69
2021/12/26 00:29:34;;;;;;;68.55;54.45;;;15.80;58.30;;;;;;4943672;28;92075;-68
2021/12/26 00:32:00;;;;;;;68.20;53.40;;;15.80;58.70;;;;;;4945815;28;88954;-69
2021/12/26 00:34:25;;;;;;;66.82;54.35;;;15.90;58.10;;;;;;4950272;28;89826;-69
2021/12/26 00:36:51;;;;;;;69.00;55.20;;;15.90;57.70;;;;;;4944913;28;89740;-69
2021/12/26 00:39:17;;;;;;;66.13;53.25;;;15.90;57.90;;;;;;4949160;28;90800;-69
2021/12/26 00:41:42;;;;;;;66.57;54.03;;;15.90;57.70;;;;;;4947423;28;91740;-68
2021/12/26 00:44:09;;;;;;;66.32;53.03;;;16.00;57.80;;;;;;4938986;28;90374;-69
2021/12/26 00:46:36;;;;;;;64.40;52.67;;;16.00;57.60;;;;;;4942315;28;90236;-68
2021/12/26 00:49:03;;;;;;;68.25;54.70;;;15.90;57.70;;;;;;4945709;28;91975;-69
2021/12/26 00:51:29;;;;;;;65.32;52.25;;;16.00;57.90;;;;;;4955273;28;89661;-68
2021/12/26 00:53:54;;;;;;;66.25;53.60;;;16.00;57.60;;;;;;4945891;28;91286;-68
2021/12/26 00:56:20;;;;;;;66.72;53.75;;;15.90;57.60;;;;;;4944749;28;90886;-68
2021/12/26 00:58:47;;;;;;;65.47;52.88;;;15.90;57.60;;;;;;4956745;28;90545;-69
2021/12/26 01:01:13;;;;;;;63.53;51.97;;;16.00;57.50;;;;;;4943239;28;89898;-68
2021/12/26 01:03:39;;;;;;;63.47;51.80;;;15.90;57.60;;;;;;4943662;28;91876;-69
2021/12/26 01:06:05;;;;;;;64.88;52.17;;;15.90;57.40;;;;;;4941858;28;91254;-69
2021/12/26 01:08:36;;;;;;;64.45;52.20;;;15.90;57.70;;;;;;4939602;28;95016;-69
2021/12/26 01:11:41;;;;;;;65.15;51.40;;;15.90;57.80;;;;;;1955795;28;10112387;-69
2021/12/26 01:14:11;;;;;;;63.67;51.85;;;15.90;57.70;;;;;;3570014;28;10089419;-69
2021/12/26 01:16:38;;;;;;;63.95;52.75;;;15.90;58.30;;;;;;4949244;28;89942;-69
2021/12/26 01:19:14;;;;;;;62.88;51.67;;;15.90;57.50;;;;;;4947345;28;89760;-68
2021/12/26 01:21:41;;;;;;;63.58;51.90;;;15.90;57.50;;;;;;4953840;28;88920;-69
2021/12/26 01:24:10;;;;;;;64.13;51.78;;;15.80;57.50;;;;;;4945565;28;93782;-68
2021/12/26 01:26:35;;;;;;;63.72;52.47;;;15.80;57.60;;;;;;4948460;28;89551;-69
2021/12/26 01:29:03;;;;;;;64.22;52.38;;;15.80;57.70;;;;;;4942818;28;91088;-68
2021/12/26 01:31:30;;;;;;;62.45;52.22;;;15.80;57.70;;;;;;4950423;28;90279;-69
2021/12/26 01:34:00;;;;;;;63.05;51.75;;;15.80;57.50;;;;;;4940141;28;91131;-69
2021/12/26 01:36:27;;;;;;;64.40;52.03;;;15.80;57.80;;;;;;4951165;28;92525;-69
2021/12/26 01:38:56;;;;;;;62.40;51.47;;;15.80;57.80;;;;;;4952024;28;91243;-69
2021/12/26 01:41:23;;;;;;;63.70;52.15;;;15.70;57.60;;;;;;4952729;28;90394;-68
2021/12/26 01:43:52;;;;;;;63.38;51.25;;;15.70;57.80;;;;;;4940865;28;89948;-68
2021/12/26 01:46:18;;;;;;;65.00;51.88;;;15.70;57.70;;;;;;4941191;28;90387;-68
2021/12/26 01:48:44;;;;;;;63.25;51.25;;;15.70;57.80;;;;;;4947478;28;89999;-69
2021/12/26 01:51:10;;;;;;;63.30;51.90;;;15.70;57.70;;;;;;4951402;28;90205;-68
2021/12/26 01:53:36;;;;;;;63.17;52.08;;;15.70;57.80;;;;;;4947429;28;91088;-69
2021/12/26 01:56:05;;;;;;;63.58;52.10;;;15.70;57.70;;;;;;4946980;28;89948;-69
2021/12/26 01:58:31;;;;;;;61.95;51.60;;;15.70;57.80;;;;;;4941289;28;91867;-70
2021/12/26 02:01:00;;;;;;;64.10;51.88;;;15.70;57.80;;;;;;4954924;28;89472;-68
2021/12/26 02:03:26;;;;;;;62.92;51.88;;;15.60;57.90;;;;;;4941364;28;89733;-68
2021/12/26 02:05:52;;;;;;;64.50;52.03;;;15.60;57.90;;;;;;4946804;28;91822;-68
2021/12/26 02:08:17;;;;;;;64.53;52.28;;;15.60;58.50;;;;;;4946417;28;90932;-68
2021/12/26 02:10:43;;;;;;;63.63;51.92;;;15.50;58.00;;;;;;4947320;28;89650;-69
2021/12/26 02:13:09;;;;;;;64.00;52.00;;;15.50;58.60;;;;;;4947553;28;91002;-69
2021/12/26 02:15:35;;;;;;;62.38;50.97;;;15.50;57.90;;;;;;4944864;28;90290;-69
2021/12/26 02:18:01;;;;;;;63.35;51.40;;;15.50;58.00;;;;;;4952538;28;90705;-69
2021/12/26 02:23:05;;;;;;;63.13;51.78;;;15.50;57.70;;;;;;4954294;28;89956;-69
2021/12/26 02:28:09;;;;;;;62.05;51.78;;;15.40;58.40;;;;;;4954253;28;89714;-69
2021/12/26 02:30:35;;;;;;;62.50;51.90;;;15.40;58.30;;;;;;4948223;28;90879;-68
2021/12/26 02:33:03;;;;;;;63.97;52.20;;;15.50;58.30;;;;;;4953389;28;89885;-68
2021/12/26 02:35:29;;;;;;;64.10;52.60;;;15.50;58.30;;;;;;4936082;28;90260;-68
2021/12/26 02:37:55;;;;;;;64.05;52.20;;;15.60;58.10;;;;;;4940854;28;89813;-69
2021/12/26 02:40:21;;;;;;;63.55;52.47;;;15.70;58.10;;;;;;4952786;28;94924;-69
2021/12/26 02:42:47;;;;;;;63.65;51.38;;;15.80;57.80;;;;;;4948943;28;91408;-69
2021/12/26 02:45:14;;;;;;;62.58;51.50;;;15.80;57.80;;;;;;4945234;28;90859;-69
2021/12/26 02:47:42;;;;;;;62.67;51.05;;;15.90;57.60;;;;;;4950597;28;90049;-69
2021/12/26 02:50:24;;;;;;;61.30;50.92;;;15.90;57.50;;;;;;4945715;28;90288;-69
2021/12/26 02:52:51;;;;;;;62.05;51.10;;;16.00;57.40;;;;;;4948546;28;90470;-68
2021/12/26 02:55:20;;;;;;;61.70;50.60;;;16.00;57.20;;;;;;4952449;28;95312;-68
2021/12/26 02:57:59;;;;;;;64.10;52.35;;;16.00;57.20;;;;;;4947034;28;89958;-68
2021/12/26 03:00:28;;;;;;;62.35;51.40;;;16.00;57.30;;;;;;4941645;28;89874;-68
2021/12/26 03:02:56;;;;;;;64.30;52.13;;;16.10;57.20;;;;;;4944530;28;91023;-69
2021/12/26 03:05:25;;;;;;;60.88;50.60;;;16.00;57.00;;;;;;4943185;28;90146;-68
2021/12/26 03:07:51;;;;;;;64.35;51.97;;;16.00;57.10;;;;;;4950811;28;90866;-69
2021/12/26 03:10:24;;;;;;;62.33;51.45;;;16.10;57.10;;;;;;4949594;28;90736;-68
2021/12/26 03:12:57;;;;;;;60.80;51.25;;;16.00;57.00;;;;;;4962083;28;92718;-69
2021/12/26 03:15:25;;;;;;;64.30;51.85;;;16.00;57.20;;;;;;4953468;28;90393;-69
2021/12/26 03:17:52;;;;;;;63.30;51.97;;;16.00;57.20;;;;;;4942942;28;89995;-69
2021/12/26 03:20:20;;;;;;;62.83;51.90;;;16.00;57.10;;;;;;4941847;28;95989;-68
2021/12/26 03:22:46;;;;;;;61.47;51.15;;;16.00;56.90;;;;;;4946320;28;91000;-69
2021/12/26 03:25:14;;;;;;;63.90;51.88;;;16.00;57.00;;;;;;4946395;28;89613;-68
2021/12/26 03:27:40;;;;;;;60.75;50.72;;;15.90;57.10;;;;;;4938393;28;90800;-69
2021/12/26 03:30:07;;;;;;;61.72;50.47;;;16.00;57.00;;;;;;4945433;28;89896;-68
2021/12/26 03:32:34;;;;;;;62.22;51.55;;;15.90;56.90;;;;;;4947508;28;90806;-68
2021/12/26 03:34:59;;;;;;;61.83;51.42;;;15.90;57.70;;;;;;4941547;28;91753;-69
2021/12/26 03:37:25;;;;;;;62.25;50.97;;;15.90;57.10;;;;;;4942479;28;92369;-69
2021/12/26 03:39:51;;;;;;;61.45;50.85;;;15.90;57.00;;;;;;4945070;28;89953;-69
2021/12/26 03:42:21;;;;;;;62.03;51.50;;;15.90;57.60;;;;;;4945253;28;90962;-69
2021/12/26 03:44:50;;;;;;;61.88;51.05;;;15.80;57.20;;;;;;4944248;28;89782;-69
2021/12/26 03:47:17;;;;;;;60.08;50.35;;;15.90;57.10;;;;;;4948202;28;89974;-68
2021/12/26 03:49:43;;;;;;;62.28;50.78;;;15.80;57.20;;;;;;4947016;28;88591;-69
2021/12/26 03:52:09;;;;;;;61.80;51.00;;;15.70;57.30;;;;;;4952846;28;92609;-69
2021/12/26 03:54:34;;;;;;;61.65;50.72;;;15.70;57.30;;;;;;4946892;28;89848;-69
2021/12/26 03:57:00;;;;;;;60.83;50.17;;;15.80;57.20;;;;;;4948078;28;90548;-69
2021/12/26 03:59:27;;;;;;;60.33;50.10;;;15.80;57.10;;;;;;4942374;28;89886;-69
2021/12/26 04:01:54;;;;;;;61.20;50.35;;;15.70;57.20;;;;;;4942561;28;90436;-68
2021/12/26 04:04:20;;;;;;;61.42;50.67;;;15.70;57.90;;;;;;4942866;28;89751;-69
2021/12/26 04:06:46;;;;;;;62.22;50.95;;;15.60;57.50;;;;;;4945509;28;89849;-69
2021/12/26 04:09:12;;;;;;;62.78;52.03;;;15.60;57.40;;;;;;4947359;28;89645;-69
2021/12/26 04:11:41;;;;;;;61.50;50.65;;;15.60;57.50;;;;;;4942862;28;89872;-69
2021/12/26 04:14:06;;;;;;;61.45;50.40;;;15.70;57.50;;;;;;4946260;28;89563;-69
2021/12/26 04:16:32;;;;;;;61.78;50.83;;;15.70;57.40;;;;;;4948119;28;94130;-68
2021/12/26 04:18:58;;;;;;;60.50;50.17;;;15.60;57.30;;;;;;4938910;28;89871;-69
2021/12/26 04:21:23;;;;;;;61.58;51.03;;;15.70;57.50;;;;;;4953185;28;91520;-69
2021/12/26 04:23:49;;;;;;;61.40;51.28;;;15.60;57.20;;;;;;4953818;28;91182;-69
2021/12/26 04:26:14;;;;;;;60.38;50.38;;;15.60;57.30;;;;;;4953037;28;90894;-68
2021/12/26 04:28:40;;;;;;;61.78;50.13;;;15.60;57.60;;;;;;4948871;28;92038;-69
2021/12/26 04:31:06;;;;;;;63.20;50.97;;;15.60;57.30;;;;;;4950361;28;89783;-69
2021/12/26 04:33:31;;;;;;;63.10;50.78;;;15.50;57.60;;;;;;4942689;28;91532;-69
2021/12/26 04:35:57;;;;;;;62.08;50.58;;;15.50;57.50;;;;;;4948045;28;89596;-69
2021/12/26 04:38:23;;;;;;;61.28;51.35;;;15.50;57.70;;;;;;4946424;28;89466;-69
2021/12/26 04:40:51;;;;;;;60.97;50.30;;;15.50;57.80;;;;;;4946513;28;91442;-69
2021/12/26 04:43:19;;;;;;;60.58;50.42;;;15.50;57.80;;;;;;4945930;28;90993;-69
2021/12/26 04:45:45;;;;;;;62.20;50.92;;;15.60;57.80;;;;;;4948041;28;92372;-69
2021/12/26 04:48:10;;;;;;;61.00;50.75;;;15.60;57.60;;;;;;4944458;28;90090;-69
2021/12/26 04:50:36;;;;;;;61.83;51.10;;;15.70;57.40;;;;;;4944322;28;91611;-69
2021/12/26 04:53:02;;;;;;;61.63;51.08;;;15.70;57.30;;;;;;4950906;28;93084;-68
2021/12/26 04:55:28;;;;;;;62.35;50.35;;;15.80;57.40;;;;;;4951621;28;90115;-69
2021/12/26 04:57:55;;;;;;;59.58;49.70;;;15.90;57.20;;;;;;4943256;28;90004;-69
2021/12/26 05:00:23;;;;;;;60.42;49.95;;;15.90;56.90;;;;;;4949299;28;89964;-68
2021/12/26 05:02:49;;;;;;;61.22;50.33;;;16.00;56.70;;;;;;4944613;28;90328;-68
2021/12/26 05:05:16;;;;;;;60.30;49.80;;;16.20;56.80;;;;;;4941100;28;90270;-69
2021/12/26 05:07:42;;;;;;;61.60;49.90;;;16.40;56.90;;;;;;4942596;28;90794;-69
2021/12/26 05:10:10;;;;;;;60.10;49.47;;;16.70;55.70;;;;;;4943992;28;90836;-69
2021/12/26 05:12:36;;;;;;;61.03;49.63;;;16.80;55.20;;;;;;4944096;28;91425;-69
2021/12/26 05:15:04;;;;;;;61.72;50.00;;;16.90;55.20;;;;;;4948873;28;89963;-69
2021/12/26 05:17:30;;;;;;;60.50;49.55;;;17.00;55.50;;;;;;4945438;28;89546;-69
2021/12/26 05:19:56;;;;;;;60.45;49.38;;;17.10;55.10;;;;;;4944234;28;89692;-69
2021/12/26 05:22:22;;;;;;;62.30;50.55;;;17.20;55.00;;;;;;4948395;28;89466;-69
2021/12/26 05:24:48;;;;;;;60.63;49.55;;;17.30;55.20;;;;;;4938497;28;89349;-69
2021/12/26 05:27:15;;;;;;;61.20;49.55;;;17.50;54.70;;;;;;4947203;28;89778;-69
2021/12/26 05:29:41;;;;;;;61.08;49.58;;;17.60;54.40;;;;;;4940057;28;90757;-69
2021/12/26 05:32:07;;;;;;;61.90;50.10;;;17.60;54.50;;;;;;4950076;28;90274;-69
2021/12/26 05:34:33;;;;;;;61.95;49.58;;;17.70;54.30;;;;;;4932262;28;91661;-69
2021/12/26 05:36:58;;;;;;;62.13;50.50;;;17.80;54.10;;;;;;4949845;28;90217;-69
2021/12/26 05:39:24;;;;;;;61.55;50.00;;;17.80;54.10;;;;;;4942627;28;90123;-68
2021/12/26 05:41:50;;;;;;;61.10;49.38;;;17.80;54.10;;;;;;4949315;28;91298;-69
2021/12/26 05:44:15;;;;;;;62.25;50.05;;;17.80;54.20;;;;;;4937466;28;90909;-69
2021/12/26 05:46:42;;;;;;;61.08;49.67;;;17.70;54.30;;;;;;4943589;28;89642;-69
2021/12/26 05:49:07;;;;;;;62.78;50.53;;;17.80;54.00;;;;;;4940947;28;95758;-69
2021/12/26 05:51:33;;;;;;;62.63;49.75;;;17.90;54.20;;;;;;4948138;28;90490;-68
2021/12/26 05:53:59;;;;;;;61.60;49.97;;;17.90;54.30;;;;;;4949945;28;94946;-69
2021/12/26 05:56:25;;;;;;;61.30;49.80;;;17.90;53.80;;;;;;4953120;28;90929;-69
2021/12/26 05:58:51;;;;;;;63.53;50.08;;;17.90;54.10;;;;;;4938363;28;93337;-68
2021/12/26 06:01:17;;;;;;;61.40;49.95;;;17.90;54.10;;;;;;4950939;28;90426;-69
2021/12/26 06:03:43;;;;;;;60.95;49.80;;;17.90;54.20;;;;;;4936970;28;96439;-68
2021/12/26 06:06:08;;;;;;;62.42;50.22;;;18.00;53.80;;;;;;4945507;28;92135;-69
2021/12/26 06:08:34;;;;;;;62.47;50.55;;;18.00;54.00;;;;;;4943758;28;92776;-69
2021/12/26 06:11:00;;;;;;;61.00;50.00;;;18.00;53.70;;;;;;4950745;28;89450;-68
2021/12/26 06:13:25;;;;;;;61.08;49.53;;;18.00;53.60;;;;;;4948408;28;89648;-69
2021/12/26 06:15:51;;;;;;;63.08;50.42;;;18.10;53.50;;;;;;4949210;28;91919;-69
2021/12/26 06:18:17;;;;;;;62.83;50.03;;;18.10;53.30;;;;;;4949064;28;93556;-69
2021/12/26 06:20:43;;;;;;;62.17;50.28;;;18.10;53.40;;;;;;4930725;28;90951;-69
2021/12/26 06:23:09;;;;;;;63.70;50.92;;;18.00;53.60;;;;;;4939476;28;95430;-69
2021/12/26 06:25:35;;;;;;;62.63;50.63;;;18.00;53.50;;;;;;4956635;28;89944;-69
2021/12/26 06:28:01;;;;;;;61.72;50.08;;;18.00;53.50;;;;;;4949818;28;90502;-69
2021/12/26 06:30:27;;;;;;;63.15;50.25;;;18.00;53.70;;;;;;4945277;28;91095;-69
2021/12/26 06:32:53;;;;;;;61.38;49.90;;;17.90;53.70;;;;;;4957582;28;89772;-68
2021/12/26 06:35:19;;;;;;;62.53;50.20;;;17.90;53.80;;;;;;4953697;28;90098;-68
2021/12/26 06:37:44;;;;;;;61.33;50.40;;;17.80;53.90;;;;;;4941573;28;90209;-69
2021/12/26 06:40:11;;;;;;;60.65;49.58;;;17.80;53.80;;;;;;4935355;28;93423;-68
2021/12/26 06:42:41;;;;;;;62.83;50.03;;;17.70;53.90;;;;;;4948612;28;90075;-68
2021/12/26 06:45:14;;;;;;;65.07;50.75;;;17.70;54.00;;;;;;4953107;28;89990;-68
2021/12/26 06:47:42;;;;;;;63.67;50.65;;;17.60;54.30;;;;;;4952145;28;92643;-68
2021/12/26 06:50:08;;;;;;;63.08;50.92;;;17.50;54.20;;;;;;4945833;28;90998;-68
2021/12/26 06:52:34;;;;;;;61.78;49.70;;;17.40;54.50;;;;;;4945948;28;89765;-68
2021/12/26 06:55:01;;;;;;;63.28;50.92;;;17.30;54.50;;;;;;4946920;28;90264;-68
2021/12/26 06:57:27;;;;;;;61.90;50.22;;;17.20;55.00;;;;;;4942842;28;90394;-68
2021/12/26 06:59:52;;;;;;;62.22;50.35;;;17.20;55.20;;;;;;4946363;28;89694;-68
2021/12/26 07:02:18;;;;;;;61.58;49.85;;;17.10;55.10;;;;;;4944652;28;90418;-67
2021/12/26 07:04:43;;;;;;;64.07;51.72;;;17.10;55.20;;;;;;4949758;28;93324;-68
2021/12/26 07:07:09;;;;;;;62.80;51.05;;;17.20;55.20;;;;;;4951774;28;91122;-68
2021/12/26 07:09:35;;;;;;;63.85;51.83;;;17.10;55.20;;;;;;4944513;28;90580;-68
2021/12/26 07:12:01;;;;;;;63.70;51.30;;;17.10;55.20;;;;;;4949271;28;92131;-67
2021/12/26 07:14:26;;;;;;;64.35;50.78;;;17.10;55.20;;;;;;4937502;28;90150;-68
2021/12/26 07:16:52;;;;;;;65.10;52.22;;;17.10;55.20;;;;;;4940357;28;90389;-68
2021/12/26 07:19:18;;;;;;;64.28;50.58;;;17.20;54.80;;;;;;4950445;28;90377;-68
2021/12/26 07:21:43;;;;;;;63.25;51.03;;;17.20;55.60;;;;;;4947585;28;89720;-68
2021/12/26 07:24:09;;;;;;;63.35;50.67;;;17.30;54.90;;;;;;4943645;28;90669;-68
2021/12/26 07:26:35;;;;;;;62.63;50.75;;;17.40;54.60;;;;;;4941173;28;90894;-68
2021/12/26 07:29:02;;;;;;;62.88;50.33;;;17.50;54.50;;;;;;4944439;28;90633;-68
2021/12/26 07:31:28;;;;;;;64.32;50.83;;;17.50;54.30;;;;;;4951722;28;90271;-68
2021/12/26 07:33:54;;;;;;;64.15;51.50;;;17.50;54.40;;;;;;4894825;28;92367;-68
2021/12/26 07:36:20;;;;;;;62.65;50.95;;;17.50;54.50;;;;;;4910042;28;91545;-68
2021/12/26 07:38:45;;;;;;;62.92;50.70;;;17.50;54.50;;;;;;4924278;28;91454;-69
2021/12/26 07:41:11;;;;;;;61.67;50.00;;;17.50;54.40;;;;;;4926466;28;91105;-68
2021/12/26 07:43:37;;;;;;;63.28;49.97;;;17.50;54.30;;;;;;4922619;28;90941;-68
2021/12/26 07:46:03;;;;;;;63.00;50.85;;;17.50;54.30;;;;;;4946913;28;90992;-68
2021/12/26 07:48:29;;;;;;;62.60;50.15;;;17.50;54.50;;;;;;4938304;28;89743;-68
2021/12/26 07:50:55;;;;;;;62.72;50.70;;;17.50;54.50;;;;;;4955745;28;90174;-68
2021/12/26 07:53:20;;;;;;;64.50;51.35;;;17.40;54.50;;;;;;4947156;28;89569;-68
2021/12/26 07:55:46;;;;;;;63.17;50.78;;;17.40;54.50;;;;;;4947872;28;95349;-68
2021/12/26 07:58:13;;;;;;;62.78;50.58;;;17.40;54.60;;;;;;4943818;28;90173;-68
2021/12/26 08:00:39;;;;;;;62.72;50.47;;;17.40;54.60;;;;;;4944284;28;90578;-69
2021/12/26 08:03:05;;;;;;;62.47;50.60;;;17.40;54.50;;;;;;4944929;28;93012;-68
2021/12/26 08:05:31;;;;;;;63.42;50.72;;;17.30;54.70;;;;;;4936827;28;90450;-68
2021/12/26 08:07:58;;;;;;;62.90;49.97;;;17.30;54.90;;;;;;4950362;28;90302;-68
2021/12/26 08:10:24;;;;;;;61.40;49.88;;;17.30;54.80;;;;;;4946651;28;90410;-68
2021/12/26 08:12:49;;;;;;;64.13;50.80;;;17.30;54.80;;;;;;4947216;28;91564;-68
2021/12/26 08:15:15;;;;;;;61.40;49.78;;;17.30;54.70;;;;;;4943995;28;89492;-68
2021/12/26 08:17:41;;;;;;;63.35;50.58;;;17.20;54.80;;;;;;4950973;28;90599;-68
2021/12/26 08:20:07;;;;;;;65.30;51.75;;;17.10;55.00;;;;;;4948647;28;96240;-68
2021/12/26 08:22:33;;;;;;;62.97;51.08;;;17.10;54.90;;;;;;4953814;28;89585;-68
2021/12/26 08:24:59;;;;;;;63.85;51.13;;;17.20;55.00;;;;;;4947410;28;90776;-68
2021/12/26 08:27:24;;;;;;;62.85;50.60;;;17.20;54.80;;;;;;4943535;28;90864;-68
2021/12/26 08:29:50;;;;;;;61.78;50.22;;;17.20;54.70;;;;;;4941105;28;90149;-68
2021/12/26 08:32:17;;;;;;;61.25;49.95;;;17.30;54.70;;;;;;4947428;28;91187;-68
2021/12/26 08:34:44;;;;;;;62.08;50.15;;;17.30;54.70;;;;;;4947104;28;89655;-69
2021/12/26 08:37:11;;;;;;;62.85;50.58;;;17.40;54.60;;;;;;4951214;28;90483;-68
2021/12/26 08:39:41;;;;;;;63.05;50.92;;;17.60;55.00;;;;;;4937169;28;89709;-68
2021/12/26 08:42:09;;;;;;;63.47;51.10;;;17.70;54.20;;;;;;4933475;28;90365;-68
2021/12/26 08:44:35;;;;;;;63.83;51.05;;;17.60;54.10;;;;;;4927785;28;89505;-68
2021/12/26 08:47:02;;;;;;;63.55;50.70;;;17.70;54.00;;;;;;4924274;28;92090;-68
2021/12/26 08:49:28;;;;;;;64.00;50.53;;;17.80;54.00;;;;;;4930480;28;91383;-68
2021/12/26 08:51:54;;;;;;;63.42;50.50;;;17.80;53.80;;;;;;4943501;28;94398;-68
2021/12/26 08:54:21;;;;;;;63.03;50.67;;;17.90;53.60;;;;;;4941363;28;92618;-68
2021/12/26 08:56:47;;;;;;;62.67;50.50;;;17.90;53.60;;;;;;4946032;28;90860;-67
2021/12/26 08:59:14;;;;;;;63.10;50.58;;;17.90;53.50;;;;;;4956151;28;90804;-67
2021/12/26 09:01:40;;;;;;;62.80;50.58;;;17.80;53.50;;;;;;4942964;28;91140;-67
2021/12/26 09:04:05;;;;;;;62.28;49.95;;;17.80;53.70;;;;;;4933475;28;93316;-68
2021/12/26 09:06:31;;;;;;;62.95;50.97;;;17.80;53.80;;;;;;4946590;28;92434;-68
2021/12/26 09:08:57;;;;;;;64.50;51.28;;;17.80;53.60;;;;;;4943575;28;89410;-68
2021/12/26 09:11:22;;;;;;;62.28;50.40;;;17.80;53.60;;;;;;4941015;28;90847;-68
2021/12/26 09:13:48;;;;;;;63.00;50.33;;;17.80;54.00;;;;;;4946694;28;92029;-68
2021/12/26 09:16:14;;;;;;;62.95;50.03;;;17.70;53.70;;;;;;4950068;28;90547;-68
2021/12/26 09:18:40;;;;;;;63.25;50.58;;;17.70;53.90;;;;;;4944463;28;90241;-68
2021/12/26 09:21:06;;;;;;;64.40;50.88;;;17.60;54.10;;;;;;4939084;28;90995;-68
2021/12/26 09:23:32;;;;;;;64.60;50.83;;;17.60;54.00;;;;;;4942865;28;89793;-68
2021/12/26 09:25:57;;;;;;;63.70;51.03;;;17.60;53.90;;;;;;4947574;28;90096;-68
2021/12/26 09:28:23;;;;;;;63.15;50.72;;;17.60;54.10;;;;;;4943608;28;89532;-68
2021/12/26 09:30:49;;;;;;;61.92;49.70;;;17.50;54.10;;;;;;4940112;28;89564;-68
2021/12/26 09:33:19;;;;;;;63.80;50.78;;;17.60;54.30;;;;;;4939141;28;91238;-70
2021/12/26 09:35:46;;;;;;;62.80;50.63;;;17.50;54.30;;;;;;4916785;28;91267;-73
2021/12/26 09:38:12;;;;;;;69.75;51.70;;;17.70;55.40;;;;;;4917146;28;94391;-74
2021/12/26 09:40:39;;;;;;;65.45;50.88;;;17.70;56.30;;;;;;4932748;28;90521;-74
2021/12/26 09:43:05;;;;;;;66.55;51.40;;;17.70;56.30;;;;;;4898229;28;90524;-74
2021/12/26 09:45:30;;;;;;;76.32;52.25;;;17.70;56.20;;;;;;4894534;28;90416;-75
2021/12/26 09:47:56;;;;;;;73.80;51.65;;;17.80;56.50;;;;;;4869699;28;91441;-74
2021/12/26 09:50:22;;;;;;;69.32;51.42;;;17.90;56.00;;;;;;4898886;28;92669;-75
2021/12/26 09:52:49;;;;;;;67.60;51.28;;;17.80;56.20;;;;;;4898441;28;91081;-75
2021/12/26 09:55:15;;;;;;;67.82;51.88;;;17.80;55.80;;;;;;4885698;28;94550;-73
2021/12/26 09:57:42;;;;;;;68.95;51.28;;;17.80;56.10;;;;;;4902839;28;92386;-73
2021/12/26 10:00:20;;;;;;;68.80;51.08;;;17.90;55.90;;;;;;4888772;28;91129;-73
2021/12/26 10:02:46;;;;;;;67.40;51.30;;;17.90;56.10;;;;;;4888987;28;96276;-73
2021/12/26 10:05:12;;;;;;;68.57;51.35;;;17.90;56.20;;;;;;4890798;28;91649;-74
2021/12/26 10:07:38;;;;;;;71.47;53.70;;;17.90;56.50;;;;;;4903506;28;97459;-74
2021/12/26 10:10:06;;;;;;;84.38;54.08;;;17.90;58.40;;;;;;4903895;28;90940;-74
2021/12/26 10:12:39;;;;;;;74.88;53.28;;;18.00;57.70;;;;;;4894134;28;92251;-74
2021/12/26 10:15:05;;;;;;;72.72;53.15;;;18.00;56.70;;;;;;4903323;28;90421;-74
2021/12/26 10:17:31;;;;;;;70.55;52.63;;;17.90;56.60;;;;;;4899551;28;89680;-74
2021/12/26 10:20:05;;;;;;;72.25;53.15;;;17.90;56.60;;;;;;4906933;28;89995;-74
2021/12/26 10:22:31;;;;;;;74.15;53.10;;;18.10;56.30;;;;;;4913694;28;90221;-74
2021/12/26 10:24:57;;;;;;;72.95;53.65;;;18.20;55.70;;;;;;4908681;28;91003;-74
2021/12/26 10:27:28;;;;;;;72.70;52.70;;;18.40;55.60;;;;;;4902128;28;91503;-74
2021/12/26 10:29:58;;;;;;;74.70;53.47;;;18.50;55.30;;;;;;4898529;28;90711;-74
2021/12/26 10:32:37;;;;;;;75.38;53.50;;;18.70;55.10;;;;;;4902910;28;90008;-74
2021/12/26 10:35:11;;;;;;;78.57;54.22;;;18.70;55.00;;;;;;4907558;28;91469;-74
2021/12/26 10:37:38;;;;;;;74.95;54.35;;;18.80;55.00;;;;;;4913976;28;91763;-74
2021/12/26 10:40:12;;;;;;;75.50;54.28;;;18.90;54.70;;;;;;4913245;28;90387;-73
2021/12/26 10:42:50;;;;;;;82.05;54.38;;;18.90;54.80;;;;;;4922150;28;90766;-74
2021/12/26 10:45:19;;;;;;;76.00;54.35;;;19.00;54.90;;;;;;4918419;28;90892;-75
2021/12/26 10:47:50;;;;;;;77.38;54.40;;;19.20;54.60;;;;;;4912274;28;91578;-74
2021/12/26 10:50:19;;;;;;;79.82;54.30;;;19.20;54.70;;;;;;4917128;28;91207;-73
2021/12/26 10:52:57;;;;;;;78.55;54.45;;;19.30;54.00;;;;;;4916137;28;92759;-74
2021/12/26 10:55:36;;;;;;;76.82;54.42;;;19.30;54.10;;;;;;4946072;28;91494;-74
2021/12/26 10:58:20;;;;;;;79.63;54.45;;;19.30;53.80;;;;;;4920782;28;92205;-73
2021/12/26 11:00:55;;;;;;;76.50;54.13;;;19.30;53.70;;;;;;4918088;28;94974;-73
2021/12/26 11:03:24;;;;;;;76.07;54.17;;;19.40;53.40;;;;;;4912799;28;90666;-73
2021/12/26 11:06:08;;;;;;;75.13;53.67;;;19.40;53.20;;;;;;4912773;28;91959;-73
2021/12/26 11:08:38;;;;;;;71.68;53.63;;;19.40;53.30;;;;;;4921554;28;89965;-73
2021/12/26 11:11:18;;;;;;;74.15;53.95;;;19.40;53.00;;;;;;4919924;28;89297;-74
2021/12/26 11:13:44;;;;;;;71.05;53.17;;;19.40;52.90;;;;;;4918479;28;90152;-74
2021/12/26 11:16:11;;;;;;;74.28;53.75;;;19.40;52.80;;;;;;4914427;28;91357;-74
2021/12/26 11:18:37;;;;;;;73.20;53.47;;;19.40;52.70;;;;;;4917683;28;95287;-74
2021/12/26 11:21:13;;;;;;;74.55;53.55;;;19.50;52.60;;;;;;4925013;28;92678;-73
2021/12/26 11:23:41;;;;;;;75.88;53.00;;;19.50;52.40;;;;;;4920019;28;91550;-74
2021/12/26 11:26:24;;;;;;;71.90;53.30;;;19.40;52.20;;;;;;4922406;28;89953;-74
2021/12/26 11:28:52;;;;;;;74.78;53.13;;;19.40;52.10;;;;;;4918542;28;90472;-74
2021/12/26 11:31:24;;;;;;;68.82;52.92;;;19.40;52.20;;;;;;4923621;28;90435;-73
2021/12/26 11:33:56;;;;;;;72.50;52.90;;;19.40;52.00;;;;;;4915056;28;91586;-73
2021/12/26 11:36:23;;;;;;;72.38;53.33;;;19.40;51.90;;;;;;4947755;28;93033;-74
2021/12/26 11:38:50;;;;;;;70.22;52.88;;;19.30;51.90;;;;;;4956430;28;89603;-73
2021/12/26 11:41:43;;;;;;;74.60;53.25;;;19.30;51.80;;;;;;4940758;28;90765;-74
2021/12/26 11:44:46;;;;;;;72.15;53.03;;;19.20;51.90;;;;;;4920012;28;92837;-73
2021/12/26 11:47:37;;;;;;;71.75;52.58;;;19.20;51.70;;;;;;4924690;28;91219;-73
2021/12/26 11:50:18;;;;;;;69.15;52.55;;;19.20;51.80;;;;;;4912806;28;91136;-73
2021/12/26 11:52:59;;;;;;;75.45;52.22;;;19.20;51.80;;;;;;4918302;28;91911;-74
2021/12/26 11:55:43;;;;;;;;;;;19.10;51.80;;;;;;4923336;28;90984;-73
2021/12/26 11:58:22;;;;;;;70.25;51.75;;;19.10;51.80;;;;;;4922677;28;89991;-74
2021/12/26 12:00:51;;;;;;;67.82;52.08;;;19.10;51.80;;;;;;4922673;28;91933;-73
2021/12/26 12:03:25;;;;;;;72.45;51.92;;;19.10;51.80;;;;;;4921124;28;94685;-73
2021/12/26 12:05:53;;;;;;;68.38;51.88;;;19.10;51.80;;;;;;4921639;28;90543;-73
2021/12/26 12:08:26;;;;;;;68.75;51.90;;;19.10;51.60;;;;;;4919607;28;89841;-74
2021/12/26 12:10:55;;;;;;;68.55;51.65;;;19.00;51.70;;;;;;4919875;28;92334;-73
2021/12/26 12:13:26;;;;;;;66.97;51.53;;;19.00;51.80;;;;;;4914109;28;90426;-74
2021/12/26 12:15:57;;;;;;;67.18;52.20;;;19.00;51.80;;;;;;4917318;28;90009;-75
2021/12/26 12:18:26;;;;;;;68.45;51.97;;;18.90;52.30;;;;;;4926090;28;90721;-73
2021/12/26 12:21:29;;;;;;;71.70;51.83;;;18.90;51.70;;;;;;4918887;28;90739;-74
2021/12/26 12:24:13;;;;;;;69.82;51.85;;;18.90;52.30;;;;;;4923175;28;89866;-73
2021/12/26 12:26:56;;;;;;;69.03;51.97;;;19.00;51.60;;;;;;4921199;28;91720;-74
2021/12/26 12:29:28;;;;;;;67.45;50.78;;;18.90;51.50;;;;;;4918718;28;91625;-74
2021/12/26 12:32:08;;;;;;;;;;;18.90;51.40;;;;;;4922917;28;90033;-73
2021/12/26 12:34:49;;;;;;;66.75;51.33;;;18.90;51.40;;;;;;4917493;28;92020;-74
2021/12/26 12:37:40;;;;;;;65.72;51.30;;;18.90;51.60;;;;;;4921692;28;91999;-73